createdAt,value
2018-09-29T00:01:55.122Z,13.20
2018-09-29T00:04:24.521Z,13.10
2018-09-29T00:06:53.926Z,13.20
2018-09-29T00:09:23.345Z,13.10
2018-09-29T00:11:52.730Z,13.10
2018-09-29T00:14:22.073Z,13.10
2018-09-29T00:16:51.484Z,13.10
2018-09-29T00:19:20.837Z,13.10
2018-09-29T00:21:50.220Z,13.10
2018-09-29T00:24:19.630Z,13.00
2018-09-29T00:26:49.080Z,13.00
2018-09-29T00:29:18.548Z,12.90
2018-09-29T00:31:47.927Z,12.90
2018-09-29T00:34:17.259Z,12.80
2018-09-29T00:36:46.730Z,12.80
2018-09-29T00:39:16.206Z,12.90
2018-09-29T00:41:45.627Z,12.90
2018-09-29T00:44:15.021Z,12.90
2018-09-29T00:46:44.563Z,12.90
2018-09-29T00:49:13.977Z,12.90
2018-09-29T00:51:43.371Z,13.10
2018-09-29T00:54:12.839Z,13.10
2018-09-29T00:56:42.398Z,13.10
2018-09-29T00:59:11.787Z,13.10
2018-09-29T01:01:41.248Z,13.10
2018-09-29T01:04:10.697Z,13.20
2018-09-29T01:06:40.024Z,13.20
2018-09-29T01:09:09.496Z,13.20
2018-09-29T01:11:38.933Z,13.20
2018-09-29T01:14:08.408Z,13.20
2018-09-29T01:16:37.887Z,13.30
2018-09-29T01:19:07.346Z,13.30
2018-09-29T01:21:36.737Z,13.30
2018-09-29T01:24:06.118Z,13.30
2018-09-29T01:26:35.483Z,13.30
2018-09-29T01:29:04.949Z,13.30
2018-09-29T01:31:34.335Z,13.20
2018-09-29T01:34:03.834Z,13.20
2018-09-29T01:36:33.290Z,13.10
2018-09-29T01:39:02.757Z,13.10
2018-09-29T01:41:32.237Z,13.00
2018-09-29T01:44:01.640Z,12.90
2018-09-29T01:46:31.049Z,12.90
2018-09-29T01:49:00.394Z,12.80
2018-09-29T01:51:29.722Z,12.70
2018-09-29T01:53:59.160Z,12.70
2018-09-29T01:56:28.879Z,12.60
2018-09-29T01:58:58.332Z,12.40
2018-09-29T02:01:27.834Z,12.40
2018-09-29T02:03:57.190Z,12.40
2018-09-29T02:06:26.599Z,12.30
2018-09-29T02:08:55.947Z,12.20
2018-09-29T02:11:25.471Z,12.10
2018-09-29T02:13:54.858Z,12.10
2018-09-29T02:16:24.277Z,12.00
2018-09-29T02:18:53.715Z,11.90
2018-09-29T02:21:23.122Z,11.90
2018-09-29T02:23:52.484Z,11.80
2018-09-29T02:26:21.863Z,11.70
2018-09-29T02:28:51.311Z,11.70
2018-09-29T02:31:33.124Z,11.60
2018-09-29T02:34:02.541Z,11.60
2018-09-29T02:36:31.910Z,11.50
2018-09-29T02:39:01.244Z,11.50
2018-09-29T02:41:30.691Z,11.50
2018-09-29T02:44:00.144Z,11.40
2018-09-29T02:46:29.589Z,11.40
2018-09-29T02:48:58.901Z,11.40
2018-09-29T02:51:28.287Z,11.40
2018-09-29T02:53:57.659Z,11.30
2018-09-29T02:56:27.155Z,11.20
2018-09-29T02:58:56.531Z,11.20
2018-09-29T03:01:36.778Z,11.10
2018-09-29T03:04:06.108Z,11.10
2018-09-29T03:06:35.489Z,11.10
2018-09-29T03:09:06.839Z,10.90
2018-09-29T03:11:36.237Z,10.90
2018-09-29T03:14:05.726Z,10.90
2018-09-29T03:16:35.132Z,11.00
2018-09-29T03:19:04.571Z,11.00
2018-09-29T03:21:33.958Z,10.90
2018-09-29T03:24:03.348Z,11.00
2018-09-29T03:26:32.752Z,10.90
2018-09-29T03:29:02.149Z,11.00
2018-09-29T03:31:31.598Z,11.00
2018-09-29T03:34:01.074Z,11.00
2018-09-29T03:36:30.410Z,11.00
2018-09-29T03:38:59.813Z,10.90
2018-09-29T03:41:29.219Z,10.90
2018-09-29T03:43:58.624Z,10.80
2018-09-29T03:46:28.061Z,10.70
2018-09-29T03:48:57.499Z,10.70
2018-09-29T03:51:26.896Z,10.60
2018-09-29T03:53:56.330Z,10.60
2018-09-29T03:56:25.795Z,10.50
2018-09-29T03:58:55.269Z,10.50
2018-09-29T04:01:24.903Z,10.40
2018-09-29T04:03:54.288Z,10.40
2018-09-29T04:06:23.684Z,10.30
2018-09-29T04:08:53.045Z,10.50
2018-09-29T04:11:22.396Z,10.50
2018-09-29T04:13:51.804Z,10.60
2018-09-29T04:16:21.220Z,10.60
2018-09-29T04:18:50.654Z,10.60
2018-09-29T04:21:20.066Z,10.60
2018-09-29T04:23:49.475Z,10.60
2018-09-29T04:26:18.899Z,10.60
2018-09-29T04:28:48.323Z,10.60
2018-09-29T04:31:17.728Z,10.60
2018-09-29T04:33:47.110Z,10.60
2018-09-29T04:36:16.495Z,10.60
2018-09-29T04:38:45.905Z,10.50
2018-09-29T04:41:15.285Z,10.50
2018-09-29T04:43:44.683Z,10.60
2018-09-29T04:46:14.138Z,10.60
2018-09-29T04:48:54.612Z,10.60
2018-09-29T04:51:24.263Z,10.60
2018-09-29T04:53:53.769Z,10.50
2018-09-29T04:56:23.217Z,10.50
2018-09-29T04:58:52.732Z,10.40
2018-09-29T05:01:22.178Z,10.40
2018-09-29T05:03:51.551Z,10.30
2018-09-29T05:06:20.956Z,10.20
2018-09-29T05:08:50.299Z,10.20
2018-09-29T05:11:20.120Z,10.20
2018-09-29T05:13:49.671Z,10.20
2018-09-29T05:16:19.174Z,10.20
2018-09-29T05:18:48.638Z,10.20
2018-09-29T05:21:17.979Z,10.30
2018-09-29T05:23:47.331Z,10.30
2018-09-29T05:26:16.698Z,10.30
2018-09-29T05:28:46.078Z,10.30
2018-09-29T05:31:15.547Z,10.30
2018-09-29T05:33:44.917Z,10.30
2018-09-29T05:36:14.295Z,10.30
2018-09-29T05:38:44.895Z,10.30
2018-09-29T05:41:14.276Z,10.30
2018-09-29T05:43:43.658Z,10.40
2018-09-29T05:46:13.143Z,10.40
2018-09-29T05:48:42.544Z,10.40
2018-09-29T05:51:11.980Z,10.50
2018-09-29T05:53:41.513Z,10.60
2018-09-29T05:56:10.967Z,10.80
2018-09-29T05:58:40.385Z,11.00
2018-09-29T06:01:09.865Z,11.20
2018-09-29T06:03:39.231Z,11.30
2018-09-29T06:06:08.661Z,11.50
2018-09-29T06:08:38.166Z,11.60
2018-09-29T06:11:07.596Z,11.80
2018-09-29T06:13:37.005Z,11.90
2018-09-29T06:16:06.488Z,12.10
2018-09-29T06:18:35.950Z,12.20
2018-09-29T06:21:05.570Z,12.30
2018-09-29T06:23:34.867Z,12.40
2018-09-29T06:26:04.306Z,12.40
2018-09-29T06:28:33.775Z,12.30
2018-09-29T06:31:03.169Z,12.30
2018-09-29T06:33:32.498Z,12.30
2018-09-29T06:36:01.953Z,12.30
2018-09-29T06:38:31.255Z,12.00
2018-09-29T06:41:00.657Z,11.90
2018-09-29T06:43:30.021Z,11.70
2018-09-29T06:45:59.485Z,11.50
2018-09-29T06:48:29.028Z,11.40
2018-09-29T06:50:58.393Z,11.30
2018-09-29T06:53:27.777Z,11.20
2018-09-29T06:55:57.220Z,11.10
2018-09-29T06:58:26.574Z,11.00
2018-09-29T07:00:55.949Z,11.00
2018-09-29T07:03:25.336Z,10.90
2018-09-29T07:05:54.868Z,10.80
2018-09-29T07:08:24.184Z,10.70
2018-09-29T07:10:53.566Z,10.60
2018-09-29T07:13:23.013Z,10.60
2018-09-29T07:15:52.407Z,10.60
2018-09-29T07:18:21.914Z,10.60
2018-09-29T07:20:51.360Z,10.60
2018-09-29T07:23:22.038Z,10.70
2018-09-29T07:25:51.557Z,10.60
2018-09-29T07:28:21.523Z,10.60
2018-09-29T07:30:51.715Z,10.60
2018-09-29T07:33:21.132Z,10.70
2018-09-29T07:35:55.714Z,10.70
2018-09-29T07:38:25.357Z,10.80
2018-09-29T07:40:54.787Z,10.90
2018-09-29T07:43:24.205Z,10.90
2018-09-29T07:45:53.710Z,11.00
2018-09-29T07:48:23.132Z,11.10
2018-09-29T07:50:52.594Z,11.10
2018-09-29T07:53:22.560Z,11.30
2018-09-29T07:55:53.831Z,11.40
2018-09-29T07:58:25.332Z,11.50
2018-09-29T08:00:56.682Z,11.50
2018-09-29T08:03:28.438Z,11.60
2018-09-29T08:05:59.865Z,11.60
2018-09-29T08:08:32.648Z,11.70
2018-09-29T08:11:05.018Z,11.80
2018-09-29T08:13:36.585Z,11.80
2018-09-29T08:16:08.444Z,11.80
2018-09-29T08:18:39.834Z,11.80
2018-09-29T08:21:11.689Z,11.80
2018-09-29T08:23:43.310Z,11.70
2018-09-29T08:26:15.417Z,11.80
2018-09-29T08:28:47.181Z,11.80
2018-09-29T08:31:18.928Z,11.90
2018-09-29T08:33:50.574Z,11.80
2018-09-29T08:36:21.963Z,11.90
2018-09-29T08:38:53.175Z,11.90
2018-09-29T08:41:23.297Z,11.90
2018-09-29T08:43:52.768Z,12.00
2018-09-29T08:46:24.175Z,12.00
2018-09-29T08:48:56.014Z,12.10
2018-09-29T08:51:27.258Z,12.10
2018-09-29T08:53:56.725Z,12.10
2018-09-29T08:56:28.232Z,12.20
2018-09-29T08:58:59.658Z,12.30
2018-09-29T09:01:30.996Z,12.40
2018-09-29T09:04:02.904Z,12.40
2018-09-29T09:06:34.298Z,12.50
2018-09-29T09:09:08.369Z,12.50
2018-09-29T09:11:40.182Z,12.50
2018-09-29T09:14:11.980Z,12.50
2018-09-29T09:16:43.563Z,12.60
2018-09-29T09:19:13.040Z,12.60
2018-09-29T09:21:44.954Z,12.70
2018-09-29T09:24:16.904Z,12.70
2018-09-29T09:26:46.338Z,12.80
2018-09-29T09:29:15.745Z,12.80
2018-09-29T09:31:45.113Z,13.00
2018-09-29T09:34:14.499Z,13.00
2018-09-29T09:36:43.861Z,13.10
2018-09-29T09:39:13.344Z,13.20
2018-09-29T09:41:42.749Z,13.30
2018-09-29T09:44:12.172Z,13.30
2018-09-29T09:46:41.661Z,13.40
2018-09-29T09:49:11.276Z,13.50
2018-09-29T09:51:40.648Z,13.60
2018-09-29T09:54:10.093Z,13.50
2018-09-29T09:56:39.440Z,13.60
2018-09-29T09:59:08.932Z,13.60
2018-09-29T10:01:43.412Z,13.70
2018-09-29T10:04:12.845Z,13.70
2018-09-29T10:06:42.232Z,13.80
2018-09-29T10:09:12.992Z,14.00
2018-09-29T10:11:43.312Z,14.00
2018-09-29T10:14:12.739Z,14.00
2018-09-29T10:16:42.171Z,14.00
2018-09-29T10:19:11.660Z,14.20
2018-09-29T10:21:41.094Z,14.30
2018-09-29T10:24:10.512Z,14.40
2018-09-29T10:26:40.111Z,14.40
2018-09-29T10:29:09.634Z,14.50
2018-09-29T10:31:39.376Z,14.50
2018-09-29T10:34:09.006Z,14.50
2018-09-29T10:36:38.515Z,14.70
2018-09-29T10:39:11.145Z,14.60
2018-09-29T10:41:40.919Z,14.50
2018-09-29T10:44:11.512Z,14.60
2018-09-29T10:46:41.124Z,14.70
2018-09-29T10:49:10.602Z,14.80
2018-09-29T10:51:40.041Z,14.90
2018-09-29T10:54:09.472Z,14.90
2018-09-29T10:56:38.830Z,15.00
2018-09-29T10:59:08.308Z,15.10
2018-09-29T11:01:37.702Z,15.30
2018-09-29T11:04:07.102Z,15.30
2018-09-29T11:06:36.564Z,15.40
2018-09-29T11:09:09.799Z,15.40
2018-09-29T11:11:39.159Z,15.50
2018-09-29T11:14:08.710Z,15.60
2018-09-29T11:16:38.180Z,15.60
2018-09-29T11:19:07.592Z,15.60
2018-09-29T11:21:36.997Z,15.60
2018-09-29T11:24:06.454Z,15.70
2018-09-29T11:26:35.939Z,15.70
2018-09-29T11:29:05.359Z,15.70
2018-09-29T11:31:34.829Z,15.90
2018-09-29T11:34:04.242Z,16.00
2018-09-29T11:36:33.647Z,16.00
2018-09-29T11:39:03.118Z,15.90
2018-09-29T11:41:32.489Z,15.80
2018-09-29T11:44:01.993Z,15.90
2018-09-29T11:46:31.538Z,15.90
2018-09-29T11:49:01.070Z,16.00
2018-09-29T11:51:30.479Z,16.10
2018-09-29T11:54:00.387Z,16.20
2018-09-29T11:56:29.852Z,16.30
2018-09-29T11:58:59.274Z,16.30
2018-09-29T12:01:28.762Z,16.50
2018-09-29T12:03:58.330Z,16.50
2018-09-29T12:06:27.872Z,16.60
2018-09-29T12:08:57.203Z,16.60
2018-09-29T12:11:26.611Z,16.60
2018-09-29T12:13:56.018Z,16.70
2018-09-29T12:16:25.412Z,16.80
2018-09-29T12:18:54.855Z,16.80
2018-09-29T12:21:24.241Z,16.90
2018-09-29T12:23:53.667Z,16.90
2018-09-29T12:26:23.074Z,17.00
2018-09-29T12:28:52.485Z,17.00
2018-09-29T12:31:22.263Z,16.90
2018-09-29T12:33:51.935Z,16.90
2018-09-29T12:36:21.572Z,16.90
2018-09-29T12:38:50.912Z,16.80
2018-09-29T12:41:20.336Z,16.90
2018-09-29T12:43:49.716Z,17.00
2018-09-29T12:46:19.186Z,17.00
2018-09-29T12:48:48.629Z,17.00
2018-09-29T12:51:18.092Z,16.90
2018-09-29T12:53:47.487Z,17.00
2018-09-29T12:56:17.187Z,17.10
2018-09-29T12:58:46.796Z,17.00
2018-09-29T13:01:16.212Z,16.90
2018-09-29T13:03:45.806Z,17.00
2018-09-29T13:06:15.200Z,17.10
2018-09-29T13:08:44.566Z,17.10
2018-09-29T13:11:13.944Z,17.20
2018-09-29T13:13:43.493Z,17.20
2018-09-29T13:16:12.871Z,17.10
2018-09-29T13:18:42.305Z,17.20
2018-09-29T13:21:11.725Z,17.20
2018-09-29T13:23:41.099Z,17.30
2018-09-29T13:26:10.503Z,17.30
2018-09-29T13:28:39.976Z,17.20
2018-09-29T13:31:09.571Z,17.30
2018-09-29T13:33:38.980Z,17.30
2018-09-29T13:36:11.031Z,17.30
2018-09-29T13:38:40.417Z,17.40
2018-09-29T13:41:10.198Z,17.40
2018-09-29T13:43:39.605Z,17.40
2018-09-29T13:46:09.637Z,17.50
2018-09-29T13:48:39.049Z,17.50
2018-09-29T13:51:08.485Z,17.50
2018-09-29T13:53:37.931Z,17.50
2018-09-29T13:56:07.361Z,17.40
2018-09-29T13:58:36.712Z,17.40
2018-09-29T14:01:06.221Z,17.40
2018-09-29T14:03:36.552Z,17.60
2018-09-29T14:06:05.982Z,17.60
2018-09-29T14:08:35.566Z,17.60
2018-09-29T14:11:05.114Z,17.60
2018-09-29T14:13:34.623Z,17.50
2018-09-29T14:16:04.296Z,17.50
2018-09-29T14:18:33.775Z,17.50
2018-09-29T14:21:03.235Z,17.50
2018-09-29T14:23:32.659Z,17.60
2018-09-29T14:26:02.673Z,17.50
2018-09-29T14:28:32.090Z,17.50
2018-09-29T14:31:01.517Z,17.50
2018-09-29T14:33:30.974Z,17.50
2018-09-29T14:36:00.347Z,17.50
2018-09-29T14:38:29.784Z,17.50
2018-09-29T14:40:59.217Z,17.50
2018-09-29T14:43:28.672Z,17.50
2018-09-29T14:45:58.111Z,17.60
2018-09-29T14:48:27.536Z,17.50
2018-09-29T14:50:56.952Z,17.50
2018-09-29T14:53:27.375Z,17.60
2018-09-29T14:55:56.829Z,17.60
2018-09-29T14:58:26.210Z,17.50
2018-09-29T15:00:55.595Z,17.50
2018-09-29T15:03:25.081Z,17.60
2018-09-29T15:05:54.499Z,17.60
2018-09-29T15:08:23.930Z,17.70
2018-09-29T15:10:53.423Z,17.60
2018-09-29T15:13:22.901Z,17.60
2018-09-29T15:15:52.559Z,17.60
2018-09-29T15:18:22.051Z,17.60
2018-09-29T15:20:51.563Z,17.60
2018-09-29T15:23:21.010Z,17.60
2018-09-29T15:25:50.750Z,17.60
2018-09-29T15:28:20.162Z,17.70
2018-09-29T15:30:49.658Z,17.60
2018-09-29T15:33:19.089Z,17.70
2018-09-29T15:35:48.517Z,17.60
2018-09-29T15:38:17.998Z,17.60
2018-09-29T15:40:47.366Z,17.40
2018-09-29T15:43:16.772Z,17.50
2018-09-29T15:45:46.107Z,17.50
2018-09-29T15:48:15.719Z,17.40
2018-09-29T15:50:45.043Z,17.40
2018-09-29T15:53:14.493Z,17.50
2018-09-29T15:55:44.256Z,17.40
2018-09-29T15:58:13.736Z,17.50
2018-09-29T16:00:43.326Z,17.40
2018-09-29T16:03:12.784Z,17.40
2018-09-29T16:05:42.211Z,17.40
2018-09-29T16:08:11.607Z,17.40
2018-09-29T16:10:41.059Z,17.30
2018-09-29T16:13:10.452Z,17.30
2018-09-29T16:15:39.864Z,17.20
2018-09-29T16:18:10.005Z,17.20
2018-09-29T16:20:39.493Z,17.10
2018-09-29T16:23:08.988Z,17.20
2018-09-29T16:25:38.382Z,17.10
2018-09-29T16:28:07.860Z,17.20
2018-09-29T16:30:37.401Z,17.10
2018-09-29T16:33:07.297Z,17.10
2018-09-29T16:35:36.775Z,17.10
2018-09-29T16:38:06.289Z,17.10
2018-09-29T16:40:35.731Z,17.00
2018-09-29T16:43:05.107Z,17.00
2018-09-29T16:45:34.519Z,16.90
2018-09-29T16:48:03.963Z,16.80
2018-09-29T16:50:33.344Z,16.80
2018-09-29T16:53:02.823Z,16.70
2018-09-29T16:55:32.338Z,16.60
2018-09-29T16:58:02.723Z,16.60
2018-09-29T17:00:32.355Z,16.60
2018-09-29T17:03:01.743Z,16.60
2018-09-29T17:05:31.158Z,16.60
2018-09-29T17:08:00.583Z,16.40
2018-09-29T17:10:30.051Z,16.40
2018-09-29T17:12:59.425Z,16.30
2018-09-29T17:15:28.972Z,16.30
2018-09-29T17:17:58.367Z,16.30
2018-09-29T17:20:27.815Z,16.20
2018-09-29T17:22:57.227Z,16.10
2018-09-29T17:25:26.736Z,16.10
2018-09-29T17:27:56.225Z,16.00
2018-09-29T17:30:25.695Z,16.00
2018-09-29T17:32:55.329Z,16.00
2018-09-29T17:35:24.782Z,16.00
2018-09-29T17:37:54.246Z,15.90
2018-09-29T17:40:23.751Z,15.90
2018-09-29T17:42:53.185Z,15.90
2018-09-29T17:45:22.583Z,15.90
2018-09-29T17:47:51.976Z,15.80
2018-09-29T17:50:21.334Z,15.80
2018-09-29T17:52:50.945Z,15.70
2018-09-29T17:55:20.295Z,15.70
2018-09-29T17:57:49.749Z,15.60
2018-09-29T18:00:19.330Z,15.60
2018-09-29T18:02:48.748Z,15.50
2018-09-29T18:05:18.217Z,15.40
2018-09-29T18:07:47.652Z,15.40
2018-09-29T18:10:17.005Z,15.30
2018-09-29T18:12:46.413Z,15.30
2018-09-29T18:15:15.899Z,15.20
2018-09-29T18:17:45.319Z,15.10
2018-09-29T18:20:14.816Z,14.90
2018-09-29T18:22:44.211Z,14.80
2018-09-29T18:25:13.644Z,14.70
2018-09-29T18:27:43.046Z,14.60
2018-09-29T18:30:12.453Z,14.50
2018-09-29T18:32:41.943Z,14.40
2018-09-29T18:35:11.406Z,14.40
2018-09-29T18:37:40.971Z,14.30
2018-09-29T18:40:10.387Z,14.30
2018-09-29T18:42:39.812Z,14.30
2018-09-29T18:45:09.283Z,14.30
2018-09-29T18:47:38.743Z,14.20
2018-09-29T18:50:08.327Z,14.20
2018-09-29T18:52:37.785Z,14.10
2018-09-29T18:55:07.165Z,14.00
2018-09-29T18:57:36.656Z,14.00
2018-09-29T19:00:06.606Z,14.00
2018-09-29T19:02:36.065Z,14.10
2018-09-29T19:05:05.614Z,14.20
2018-09-29T19:07:37.254Z,14.20
2018-09-29T19:10:06.622Z,14.30
2018-09-29T19:12:36.019Z,14.20
2018-09-29T19:15:05.519Z,14.20
2018-09-29T19:17:34.964Z,14.20
2018-09-29T19:20:04.391Z,14.20
2018-09-29T19:22:33.833Z,14.20
2018-09-29T19:25:03.200Z,14.20
2018-09-29T19:27:32.613Z,14.20
2018-09-29T19:30:02.044Z,14.20
2018-09-29T19:32:31.438Z,14.00
2018-09-29T19:35:00.807Z,14.00
2018-09-29T19:37:30.252Z,13.90
2018-09-29T19:39:59.688Z,13.90
2018-09-29T19:42:29.053Z,13.80
2018-09-29T19:44:58.487Z,13.70
2018-09-29T19:47:27.904Z,13.70
2018-09-29T19:49:57.284Z,13.60
2018-09-29T19:52:26.752Z,13.50
2018-09-29T19:54:56.203Z,13.40
2018-09-29T19:57:25.613Z,13.40
2018-09-29T19:59:55.061Z,13.30
2018-09-29T20:02:24.602Z,13.30
2018-09-29T20:04:54.031Z,13.10
2018-09-29T20:07:24.188Z,13.00
2018-09-29T20:09:53.615Z,12.90
2018-09-29T20:12:23.135Z,12.80
2018-09-29T20:14:52.564Z,12.70
2018-09-29T20:17:21.958Z,12.60
2018-09-29T20:19:51.326Z,12.60
2018-09-29T20:22:20.785Z,12.40
2018-09-29T20:24:50.324Z,12.40
2018-09-29T20:27:19.711Z,12.30
2018-09-29T20:29:49.152Z,12.30
2018-09-29T20:32:19.388Z,12.20
2018-09-29T20:34:48.796Z,12.20
2018-09-29T20:37:18.252Z,12.10
2018-09-29T20:39:47.614Z,12.10
2018-09-29T20:42:17.144Z,12.00
2018-09-29T20:44:46.713Z,11.90
2018-09-29T20:47:16.151Z,11.80
2018-09-29T20:49:45.603Z,11.70
2018-09-29T20:52:15.030Z,11.70
2018-09-29T20:54:44.438Z,11.60
2018-09-29T20:57:13.938Z,11.60
2018-09-29T20:59:43.399Z,11.60
2018-09-29T21:02:12.864Z,11.50
2018-09-29T21:04:42.417Z,11.50
2018-09-29T21:07:12.067Z,11.50
2018-09-29T21:09:41.522Z,11.50
2018-09-29T21:12:10.993Z,11.40
2018-09-29T21:14:40.371Z,11.30
2018-09-29T21:17:09.803Z,11.20
2018-09-29T21:19:39.202Z,11.20
2018-09-29T21:22:08.709Z,11.10
2018-09-29T21:24:38.126Z,11.10
2018-09-29T21:27:07.531Z,11.00
2018-09-29T21:29:36.968Z,11.00
2018-09-29T21:32:06.371Z,11.00
2018-09-29T21:34:35.765Z,10.90
2018-09-29T21:37:05.244Z,10.90
2018-09-29T21:39:35.029Z,10.80
2018-09-29T21:42:04.442Z,10.70
2018-09-29T21:44:33.936Z,10.60
2018-09-29T21:47:03.327Z,10.60
2018-09-29T21:49:32.779Z,10.60
2018-09-29T21:52:02.187Z,10.50
2018-09-29T21:54:31.577Z,10.40
2018-09-29T21:57:01.026Z,10.40
2018-09-29T21:59:30.487Z,10.40
2018-09-29T22:01:59.804Z,10.40
2018-09-29T22:04:29.214Z,10.30
2018-09-29T22:06:58.595Z,10.20
2018-09-29T22:09:28.075Z,10.20
2018-09-29T22:11:57.630Z,10.10
2018-09-29T22:14:27.105Z,10.10
2018-09-29T22:16:56.613Z,10.10
2018-09-29T22:19:26.091Z,10.10
2018-09-29T22:21:55.486Z,10.00
2018-09-29T22:24:24.939Z,10.00
2018-09-29T22:26:54.370Z,10.00
2018-09-29T22:29:23.738Z,9.90
2018-09-29T22:31:53.251Z,9.80
2018-09-29T22:34:22.609Z,9.80
2018-09-29T22:36:52.009Z,9.70
2018-09-29T22:39:21.512Z,9.70
2018-09-29T22:41:50.876Z,9.70
2018-09-29T22:44:20.330Z,9.70
2018-09-29T22:46:49.718Z,9.60
2018-09-29T22:49:19.199Z,9.50
2018-09-29T22:51:48.638Z,9.50
2018-09-29T22:54:18.041Z,9.50
2018-09-29T22:56:47.447Z,9.40
2018-09-29T22:59:16.791Z,9.30
2018-09-29T23:01:46.221Z,9.30
2018-09-29T23:04:15.611Z,9.30
2018-09-29T23:06:45.036Z,9.20
2018-09-29T23:09:14.540Z,9.10
2018-09-29T23:11:44.031Z,9.10
2018-09-29T23:14:13.390Z,9.00
2018-09-29T23:16:42.952Z,9.00
2018-09-29T23:19:13.155Z,9.00
2018-09-29T23:21:42.328Z,9.00
2018-09-29T23:24:11.725Z,9.00
2018-09-29T23:26:41.131Z,9.00
2018-09-29T23:29:10.577Z,8.90
2018-09-29T23:31:40.007Z,8.90
2018-09-29T23:34:09.431Z,8.90
2018-09-29T23:36:38.943Z,8.90
2018-09-29T23:39:10.250Z,8.90
2018-09-29T23:41:39.716Z,8.80
2018-09-29T23:44:09.289Z,8.80
2018-09-29T23:46:38.855Z,8.80
2018-09-29T23:49:08.503Z,8.80
2018-09-29T23:51:37.955Z,8.70
2018-09-29T23:54:07.399Z,8.70
2018-09-29T23:56:36.931Z,8.70
2018-09-29T23:59:06.421Z,8.60
